Time;durP1;ratioP1;P1;durP2;ratioP2;P2;SDS_P1;SDS_P2;PMS_P1;PMS_P2;Temp;Humidity;BMP_temperature;BMP_pressure;BME280_temperature;BME280_humidity;BME280_pressure;Samples;Min_cycle;Max_cycle;Signal;HPM_P1;HPM_P2
2022/01/27 00:00:43;;;;;;;138.98;52.88;;;0.20;99.90;;;;;;4950823;29;20055;-73
2022/01/27 00:03:21;;;;;;;117.05;45.20;;;0.20;99.90;;;;;;4936145;29;20066;-73
2022/01/27 00:05:52;;;;;;;200.20;51.63;;;0.20;99.90;;;;;;4952815;28;20059;-73
2022/01/27 00:08:31;;;;;;;131.40;48.65;;;0.10;99.90;;;;;;4952534;28;20058;-74
2022/01/27 00:11:07;;;;;;;121.30;46.08;;;0.10;99.90;;;;;;4950868;28;20037;-74
2022/01/27 00:13:43;;;;;;;130.80;48.38;;;0.20;99.90;;;;;;4952197;28;20023;-73
2022/01/27 00:18:38;;;;;;;103.68;49.00;;;0.10;99.90;;;;;;4950946;28;20049;-74
2022/01/27 00:21:04;;;;;;;125.35;50.10;;;0.30;99.90;;;;;;4951590;28;20466;-73
2022/01/27 00:23:30;;;;;;;154.05;50.03;;;0.20;99.90;;;;;;4954071;29;20118;-74
2022/01/27 00:25:56;;;;;;;89.15;46.35;;;0.30;99.90;;;;;;4950589;28;20118;-73
2022/01/27 00:28:21;;;;;;;114.95;51.22;;;0.30;99.90;;;;;;4950331;28;20083;-74
2022/01/27 00:30:47;;;;;;;154.68;49.65;;;0.30;99.90;;;;;;4950142;28;20085;-74
2022/01/27 00:33:13;;;;;;;96.78;46.88;;;0.20;99.90;;;;;;4950550;28;20046;-74
2022/01/27 00:35:39;;;;;;;140.82;63.22;;;0.30;99.90;;;;;;4954778;28;20404;-74
2022/01/27 00:38:05;;;;;;;219.07;59.63;;;0.20;99.90;;;;;;4950282;29;20043;-74
2022/01/27 00:40:31;;;;;;;109.80;44.45;;;0.10;99.90;;;;;;4950648;29;20027;-74
2022/01/27 00:42:57;;;;;;;111.45;48.35;;;0.10;99.90;;;;;;4949820;29;20035;-75
2022/01/27 00:45:24;;;;;;;142.30;48.60;;;0.30;99.90;;;;;;4952498;29;20015;-74
2022/01/27 00:47:50;;;;;;;138.00;50.10;;;0.10;99.90;;;;;;4952540;29;20038;-73
2022/01/27 00:50:18;;;;;;;105.78;57.03;;;0.20;99.90;;;;;;4951356;29;20055;-74
2022/01/27 00:52:49;;;;;;;98.68;41.22;;;0.20;99.90;;;;;;4951772;29;20444;-74
2022/01/27 00:55:16;;;;;;;185.93;48.20;;;0.00;99.90;;;;;;4949905;29;20046;-74
2022/01/27 01:00:25;;;;;;;159.98;52.13;;;0.00;99.90;;;;;;4935619;29;20123;-74
2022/01/27 01:02:58;;;;;;;141.73;48.00;;;0.10;99.90;;;;;;4952469;28;20385;-73
2022/01/27 01:15:55;;;;;;;86.53;40.55;;;0.00;99.90;;;;;;4920189;29;20119;-73
2022/01/27 01:32:10;;;;;;;112.18;48.03;;;0.20;99.90;;;;;;4902795;29;20044;-74
2022/01/27 01:34:42;;;;;;;87.63;43.20;;;0.10;99.90;;;;;;4902569;29;20044;-74
2022/01/27 01:37:09;;;;;;;62.97;36.77;;;0.20;99.90;;;;;;4902675;29;20035;-74
2022/01/27 01:39:36;;;;;;;81.80;41.13;;;0.20;99.90;;;;;;4901278;29;20513;-74
2022/01/27 01:42:07;;;;;;;72.35;39.67;;;0.10;99.90;;;;;;4898072;29;20210;-75
2022/01/27 01:44:33;;;;;;;81.47;39.30;;;0.10;99.90;;;;;;4898509;29;20044;-74
2022/01/27 01:47:00;;;;;;;96.05;35.55;;;0.10;99.90;;;;;;4913790;29;20044;-74
2022/01/27 01:49:27;;;;;;;82.57;39.72;;;0.00;99.90;;;;;;4914539;29;20051;-75
2022/01/27 01:51:54;;;;;;;118.25;42.70;;;0.10;99.90;;;;;;4914483;29;20064;-74
2022/01/27 01:54:20;;;;;;;136.88;44.13;;;0.00;99.90;;;;;;4914398;29;20032;-74
2022/01/27 01:56:46;;;;;;;198.93;47.97;;;-0.20;99.90;;;;;;4913044;29;20032;-74
2022/01/27 01:59:12;;;;;;;121.13;44.75;;;-0.10;99.90;;;;;;4914877;29;20071;-74
2022/01/27 02:01:39;;;;;;;53.10;33.40;;;0.00;99.90;;;;;;4936937;29;20035;-74
2022/01/27 02:04:08;;;;;;;162.40;51.65;;;0.10;99.90;;;;;;4945495;28;20077;-74
2022/01/27 02:06:41;;;;;;;91.95;39.17;;;0.30;99.90;;;;;;4949350;28;20110;-73
2022/01/27 02:19:59;;;;;;;70.93;37.63;;;0.10;99.90;;;;;;4949586;29;20102;-74
2022/01/27 02:22:25;;;;;;;71.75;35.85;;;0.00;99.90;;;;;;4950362;29;20027;-75
2022/01/27 02:24:51;;;;;;;118.88;39.00;;;0.00;99.90;;;;;;4952691;29;20058;-75
2022/01/27 02:27:18;;;;;;;72.70;37.33;;;-0.10;99.90;;;;;;4952497;29;20106;-75
2022/01/27 02:29:45;;;;;;;84.20;37.63;;;0.00;99.90;;;;;;4955624;28;20036;-74
2022/01/27 02:32:12;;;;;;;68.97;38.67;;;-0.10;99.90;;;;;;4953813;29;20114;-75
2022/01/27 02:34:39;;;;;;;72.00;36.75;;;0.10;99.90;;;;;;4952448;28;20035;-75
2022/01/27 02:37:05;;;;;;;60.50;34.90;;;0.20;99.90;;;;;;4952723;28;20110;-75
2022/01/27 02:39:30;;;;;;;74.93;35.35;;;0.10;99.90;;;;;;4952271;28;20118;-75
2022/01/27 02:42:21;;;;;;;91.53;40.35;;;0.00;99.90;;;;;;4953826;29;20034;-73
2022/01/27 02:44:55;;;;;;;77.80;39.45;;;0.10;99.90;;;;;;4955150;29;20126;-74
2022/01/27 02:47:23;;;;;;;101.65;41.95;;;0.10;99.90;;;;;;4954015;29;20026;-75
2022/01/27 02:49:49;;;;;;;98.65;39.45;;;0.10;99.90;;;;;;4953677;29;20479;-75
2022/01/27 02:52:16;;;;;;;101.10;40.00;;;0.10;99.90;;;;;;4952146;29;20111;-75
2022/01/27 02:54:42;;;;;;;122.22;42.15;;;0.00;99.90;;;;;;4953448;29;20047;-74
2022/01/27 02:57:08;;;;;;;156.10;44.63;;;-0.10;99.90;;;;;;4967278;28;20038;-74
2022/01/27 02:59:34;;;;;;;106.15;38.78;;;-0.10;99.90;;;;;;4955801;29;20039;-74
2022/01/27 03:01:59;;;;;;;92.75;40.38;;;0.00;99.90;;;;;;4951922;29;20031;-74
2022/01/27 03:04:25;;;;;;;92.03;38.88;;;0.00;99.90;;;;;;4951908;29;20393;-73
2022/01/27 03:06:52;;;;;;;100.75;37.42;;;0.00;99.90;;;;;;4951809;28;20034;-74
2022/01/27 03:09:18;;;;;;;184.30;44.40;;;0.00;99.90;;;;;;4951960;28;20031;-74
2022/01/27 03:12:02;;;;;;;140.75;40.67;;;0.00;99.90;;;;;;4954449;28;20031;-75
2022/01/27 03:14:29;;;;;;;105.18;38.83;;;0.10;99.90;;;;;;4954807;29;20034;-74
2022/01/27 03:16:59;;;;;;;100.47;39.85;;;0.10;99.90;;;;;;4951589;28;20094;-74
2022/01/27 03:19:26;;;;;;;142.02;47.50;;;0.00;99.90;;;;;;4952047;29;20484;-75
2022/01/27 03:21:53;;;;;;;157.05;45.95;;;0.00;99.90;;;;;;4951345;28;20035;-74
2022/01/27 03:24:19;;;;;;;105.75;44.25;;;0.00;99.90;;;;;;4951225;29;20396;-74
2022/01/27 03:26:46;;;;;;;97.82;41.13;;;0.10;99.90;;;;;;4954666;28;20027;-74
2022/01/27 03:29:12;;;;;;;113.03;40.60;;;0.10;99.90;;;;;;4954226;28;20039;-74
2022/01/27 03:31:37;;;;;;;123.15;43.03;;;0.00;99.90;;;;;;4951659;29;20026;-73
2022/01/27 03:34:03;;;;;;;152.48;37.33;;;-0.10;99.90;;;;;;4951714;28;20130;-75
2022/01/27 03:36:29;;;;;;;195.68;43.38;;;-0.20;99.90;;;;;;4951236;29;20028;-74
2022/01/27 03:38:54;;;;;;;130.13;46.97;;;-0.30;99.90;;;;;;4953415;29;20043;-74
2022/01/27 03:41:22;;;;;;;79.75;39.58;;;-0.30;99.90;;;;;;4953180;29;20094;-74
2022/01/27 03:43:50;;;;;;;166.48;44.22;;;-0.10;99.90;;;;;;4951159;28;20429;-74
2022/01/27 03:46:16;;;;;;;84.15;37.05;;;-0.10;99.90;;;;;;4951196;29;20019;-74
2022/01/27 03:48:42;;;;;;;166.20;57.38;;;-0.10;99.90;;;;;;4951049;29;20054;-74
2022/01/27 03:51:08;;;;;;;99.90;44.63;;;-0.20;99.90;;;;;;4952028;28;20074;-75
2022/01/27 03:53:34;;;;;;;125.47;40.72;;;-0.10;99.90;;;;;;4954278;29;20054;-74
2022/01/27 03:56:00;;;;;;;168.23;41.22;;;-0.10;99.90;;;;;;4951027;29;20023;-74
2022/01/27 03:58:25;;;;;;;102.43;39.40;;;0.10;99.90;;;;;;4950986;29;20086;-75
2022/01/27 04:00:51;;;;;;;109.82;33.97;;;0.10;99.90;;;;;;4950735;29;20062;-75
2022/01/27 04:03:19;;;;;;;103.30;37.80;;;0.00;99.90;;;;;;4950987;29;20381;-74
2022/01/27 04:05:52;;;;;;;80.75;32.92;;;0.20;99.90;;;;;;4953722;28;20039;-74
2022/01/27 04:08:18;;;;;;;124.53;41.42;;;0.10;99.90;;;;;;4954198;29;20069;-74
2022/01/27 04:10:44;;;;;;;151.88;40.22;;;-0.10;99.90;;;;;;4950761;29;20027;-74
2022/01/27 04:13:10;;;;;;;129.38;38.50;;;-0.20;99.90;;;;;;4952041;29;20035;-74
2022/01/27 04:15:39;;;;;;;59.38;30.98;;;0.00;99.90;;;;;;4950786;29;20047;-74
2022/01/27 04:18:06;;;;;;;170.00;36.03;;;0.00;99.90;;;;;;4951864;28;20067;-74
2022/01/27 04:20:32;;;;;;;188.85;37.83;;;-0.10;99.90;;;;;;4953833;29;20034;-74
2022/01/27 04:22:57;;;;;;;73.35;33.38;;;-0.30;99.90;;;;;;4950048;29;20040;-74
2022/01/27 04:25:23;;;;;;;62.90;30.67;;;-0.10;99.90;;;;;;4950273;28;20034;-75
2022/01/27 04:27:53;;;;;;;289.55;42.03;;;0.00;99.90;;;;;;4950478;29;20031;-74
2022/01/27 04:30:22;;;;;;;275.35;45.67;;;0.00;99.90;;;;;;4950677;29;20087;-74
2022/01/27 04:32:55;;;;;;;99.55;38.63;;;-0.20;99.90;;;;;;4952818;28;20031;-74
2022/01/27 04:35:24;;;;;;;;;;;-0.20;99.90;;;;;;4952769;29;20031;-75
2022/01/27 04:40:33;;;;;;;147.93;29.73;;;0.00;99.90;;;;;;4952848;29;20047;-75
2022/01/27 04:45:30;;;;;;;154.07;33.42;;;-0.20;99.90;;;;;;4951477;28;20024;-74
2022/01/27 04:48:06;;;;;;;470.83;46.33;;;0.10;99.90;;;;;;4966845;28;20090;-74
2022/01/27 04:50:31;;;;;;;164.13;30.45;;;-0.20;99.90;;;;;;4953437;29;20035;-74
2022/01/27 04:52:59;;;;;;;208.63;40.30;;;-0.30;99.90;;;;;;4961803;28;20065;-74
2022/01/27 04:55:25;;;;;;;261.58;35.10;;;-0.40;99.90;;;;;;4950010;28;20031;-75
2022/01/27 04:58:06;;;;;;;372.60;48.63;;;-0.50;99.90;;;;;;4949966;28;20057;-74
2022/01/27 05:00:32;;;;;;;282.27;41.90;;;-0.50;99.90;;;;;;4950105;29;20039;-74
2022/01/27 05:03:00;;;;;;;274.48;39.40;;;-0.40;99.90;;;;;;4951675;28;20094;-74
2022/01/27 05:05:26;;;;;;;246.45;37.55;;;-0.50;99.90;;;;;;4952740;29;20031;-74
2022/01/27 05:08:02;;;;;;;179.50;36.95;;;-0.50;99.90;;;;;;4949400;29;20035;-74
2022/01/27 05:10:32;;;;;;;168.15;39.97;;;-0.70;99.90;;;;;;4949780;28;20495;-74
2022/01/27 05:13:19;;;;;;;109.70;35.30;;;-0.40;99.90;;;;;;4949792;29;20023;-74
2022/01/27 05:15:45;;;;;;;328.23;43.72;;;-0.30;99.90;;;;;;4949765;28;20508;-75
2022/01/27 05:18:15;;;;;;;171.68;37.92;;;-0.60;99.90;;;;;;4950126;29;20560;-74
2022/01/27 05:20:41;;;;;;;163.18;39.25;;;-0.60;99.90;;;;;;4952928;29;20484;-75
2022/01/27 05:23:07;;;;;;;171.68;37.22;;;-0.50;99.90;;;;;;4950170;29;20024;-74
2022/01/27 05:25:33;;;;;;;188.90;38.63;;;-0.30;99.90;;;;;;4951081;28;20027;-74
2022/01/27 05:27:59;;;;;;;219.77;37.35;;;-0.60;99.90;;;;;;4949852;28;20035;-74
2022/01/27 05:30:25;;;;;;;137.68;37.45;;;-0.60;99.90;;;;;;4951132;29;20411;-74
2022/01/27 05:32:50;;;;;;;207.40;45.83;;;-0.50;99.90;;;;;;4952064;28;20035;-74
2022/01/27 05:35:16;;;;;;;243.27;49.20;;;-0.60;99.90;;;;;;4950836;28;20035;-74
2022/01/27 05:37:42;;;;;;;170.95;45.67;;;-0.70;99.90;;;;;;4949434;29;20114;-74
2022/01/27 05:40:08;;;;;;;217.68;36.10;;;-0.70;99.90;;;;;;4949744;29;20027;-74
2022/01/27 05:42:34;;;;;;;270.23;40.90;;;-0.70;99.90;;;;;;4949658;28;20031;-74
2022/01/27 05:45:00;;;;;;;232.98;35.90;;;-0.90;99.90;;;;;;4951154;29;20405;-74
2022/01/27 05:47:26;;;;;;;261.67;38.47;;;-0.70;99.90;;;;;;4952188;29;20024;-74
2022/01/27 05:49:51;;;;;;;50.25;30.52;;;-0.90;99.90;;;;;;4948923;29;20056;-74
2022/01/27 05:52:17;;;;;;;233.45;38.15;;;-0.60;99.90;;;;;;4949335;28;20121;-74
2022/01/27 05:54:43;;;;;;;237.27;40.85;;;-0.80;99.90;;;;;;4949454;28;20030;-74
2022/01/27 05:57:08;;;;;;;76.28;33.58;;;-0.90;99.90;;;;;;4950852;28;20090;-74
2022/01/27 05:59:34;;;;;;;154.20;40.15;;;-0.50;99.90;;;;;;4956745;29;20504;-74
2022/01/27 06:02:00;;;;;;;204.00;35.35;;;-0.40;99.90;;;;;;4953369;29;20023;-74
2022/01/27 06:04:26;;;;;;;85.43;33.13;;;-0.80;99.90;;;;;;4953943;28;20178;-73
2022/01/27 06:06:53;;;;;;;297.88;43.33;;;-0.70;99.90;;;;;;4953179;29;20034;-73
2022/01/27 06:09:19;;;;;;;180.60;36.13;;;-0.80;99.90;;;;;;4954554;29;20093;-74
2022/01/27 06:11:45;;;;;;;129.30;38.30;;;-0.70;99.90;;;;;;4956026;28;20389;-74
2022/01/27 06:14:11;;;;;;;85.47;37.50;;;-0.80;99.90;;;;;;4953977;29;20027;-74
2022/01/27 06:16:36;;;;;;;132.98;37.08;;;-0.80;99.90;;;;;;4952756;29;20078;-74
2022/01/27 06:19:04;;;;;;;73.10;33.70;;;-0.90;99.90;;;;;;4952804;29;20045;-74
2022/01/27 06:21:31;;;;;;;151.10;39.47;;;-0.80;99.90;;;;;;4952930;28;20107;-74
2022/01/27 06:23:56;;;;;;;204.18;33.25;;;-0.60;99.90;;;;;;4954623;28;20064;-74
2022/01/27 06:26:23;;;;;;;203.32;31.88;;;-0.90;99.90;;;;;;4954760;29;20024;-74
2022/01/27 06:28:48;;;;;;;130.57;31.17;;;-1.20;99.90;;;;;;4953066;29;20432;-74
2022/01/27 06:31:14;;;;;;;83.90;30.92;;;-1.20;99.90;;;;;;4952391;29;20029;-74
2022/01/27 06:33:40;;;;;;;94.07;30.42;;;-1.00;99.90;;;;;;4952311;29;20035;-74
2022/01/27 06:36:06;;;;;;;107.25;30.83;;;-0.90;99.90;;;;;;4953623;29;20055;-74
2022/01/27 06:38:31;;;;;;;93.72;29.90;;;-1.00;99.90;;;;;;4955414;29;20126;-74
2022/01/27 06:40:57;;;;;;;81.60;29.67;;;-0.80;99.90;;;;;;4952227;29;20497;-74
2022/01/27 06:43:23;;;;;;;81.72;29.05;;;-1.10;99.90;;;;;;4954000;29;20030;-73
2022/01/27 06:45:48;;;;;;;181.55;31.20;;;-1.00;99.90;;;;;;4952341;29;20023;-73
2022/01/27 06:48:14;;;;;;;116.97;32.58;;;-1.10;99.90;;;;;;4953002;29;20374;-74
2022/01/27 06:50:40;;;;;;;198.10;34.88;;;-1.10;99.90;;;;;;4955671;29;20094;-74
2022/01/27 06:53:06;;;;;;;59.50;28.13;;;-1.30;99.90;;;;;;4952098;29;20394;-74
2022/01/27 06:55:32;;;;;;;123.68;33.03;;;-0.90;99.90;;;;;;4951922;28;20031;-74
2022/01/27 06:57:58;;;;;;;76.05;32.58;;;-1.10;99.90;;;;;;4952032;29;20034;-73
2022/01/27 07:00:23;;;;;;;69.07;32.58;;;-1.00;99.90;;;;;;4952620;29;20038;-73
2022/01/27 07:02:49;;;;;;;82.97;36.70;;;-1.10;99.90;;;;;;4954218;29;20489;-74
2022/01/27 07:05:17;;;;;;;53.13;30.80;;;-0.90;99.90;;;;;;4953543;29;20031;-72
2022/01/27 07:07:43;;;;;;;57.65;29.65;;;-0.90;99.90;;;;;;4951785;28;20190;-74
2022/01/27 07:10:10;;;;;;;185.80;34.88;;;-0.90;99.90;;;;;;4951973;29;20106;-70
2022/01/27 07:12:39;;;;;;;61.03;28.40;;;-1.00;99.90;;;;;;4952110;28;20037;-70
2022/01/27 07:15:05;;;;;;;125.53;32.95;;;-0.80;99.90;;;;;;4967743;28;25409;-70
2022/01/27 07:17:31;;;;;;;101.75;31.73;;;-0.80;99.90;;;;;;4954367;29;20027;-70
2022/01/27 07:19:56;;;;;;;96.75;28.92;;;-0.80;99.90;;;;;;4951547;28;20047;-70
2022/01/27 07:22:22;;;;;;;66.20;27.98;;;-1.00;99.90;;;;;;4953108;29;20031;-70
2022/01/27 07:24:48;;;;;;;147.57;33.33;;;-1.00;99.90;;;;;;4951688;29;20055;-70
2022/01/27 07:27:14;;;;;;;130.27;31.25;;;-1.20;99.90;;;;;;4953302;29;20074;-70
2022/01/27 07:29:40;;;;;;;66.22;30.70;;;-1.20;99.90;;;;;;4955555;29;20480;-70
2022/01/27 07:32:06;;;;;;;79.45;29.10;;;-1.10;99.90;;;;;;4951006;29;20065;-69
2022/01/27 07:34:31;;;;;;;205.30;38.00;;;-1.00;99.90;;;;;;4951480;29;20055;-69
2022/01/27 07:37:00;;;;;;;212.45;32.78;;;-1.00;99.90;;;;;;4951561;29;20066;-69
2022/01/27 07:39:26;;;;;;;110.90;31.50;;;-1.20;99.90;;;;;;4951238;28;20564;-70
2022/01/27 07:41:52;;;;;;;114.47;32.65;;;-1.20;99.90;;;;;;4953400;29;20039;-71
2022/01/27 07:44:17;;;;;;;99.32;29.70;;;-1.10;99.90;;;;;;4952916;28;20041;-70
2022/01/27 07:46:43;;;;;;;196.70;35.05;;;-1.20;99.90;;;;;;4950886;29;20066;-71
2022/01/27 07:49:09;;;;;;;138.82;33.22;;;-1.20;99.90;;;;;;4951187;29;20051;-71
2022/01/27 07:51:35;;;;;;;191.02;33.63;;;-1.20;99.90;;;;;;4951207;29;20028;-70
2022/01/27 07:54:00;;;;;;;158.85;32.83;;;-1.10;99.90;;;;;;4952861;29;20032;-70
2022/01/27 07:56:26;;;;;;;85.20;31.25;;;-1.30;99.90;;;;;;4953537;29;20027;-71
2022/01/27 07:58:52;;;;;;;55.42;26.05;;;-1.00;99.90;;;;;;4951133;28;20070;-71
2022/01/27 08:01:18;;;;;;;51.53;27.63;;;-1.10;99.90;;;;;;4952068;29;20043;-71
2022/01/27 08:03:44;;;;;;;90.10;30.90;;;-0.90;99.90;;;;;;4951079;28;20503;-72
2022/01/27 08:06:10;;;;;;;350.30;37.97;;;-0.90;99.90;;;;;;4937418;29;20461;-71
2022/01/27 08:08:36;;;;;;;60.65;27.83;;;-1.10;99.90;;;;;;4954682;28;20019;-72
2022/01/27 08:11:02;;;;;;;131.40;34.08;;;-1.00;99.90;;;;;;4950998;29;20043;-71
2022/01/27 08:13:29;;;;;;;128.02;33.30;;;-1.10;99.90;;;;;;4950829;29;20034;-69
2022/01/27 08:15:54;;;;;;;125.43;34.25;;;-1.00;99.90;;;;;;4950241;29;20042;-69
2022/01/27 08:18:21;;;;;;;83.63;28.63;;;-0.80;99.90;;;;;;4950484;29;20090;-69
2022/01/27 08:20:47;;;;;;;204.98;31.40;;;-0.90;99.90;;;;;;4953178;28;20033;-71
2022/01/27 08:23:14;;;;;;;198.02;31.38;;;-1.00;99.90;;;;;;4952794;29;20082;-70
2022/01/27 08:25:42;;;;;;;114.25;33.15;;;-1.10;99.90;;;;;;4950126;29;20517;-70
2022/01/27 08:28:19;;;;;;;89.47;32.10;;;-1.00;99.90;;;;;;4950184;28;20110;-70
2022/01/27 08:30:48;;;;;;;81.45;31.67;;;-1.00;99.90;;;;;;4949919;28;20177;-70
2022/01/27 08:33:17;;;;;;;140.15;34.03;;;-1.10;99.90;;;;;;4950313;28;20043;-70
2022/01/27 08:35:43;;;;;;;54.03;29.75;;;-1.10;99.90;;;;;;4953931;28;20094;-70
2022/01/27 08:38:09;;;;;;;69.07;27.50;;;-1.00;99.90;;;;;;4950665;29;20063;-71
2022/01/27 08:40:35;;;;;;;66.30;27.33;;;-1.20;99.90;;;;;;4951449;29;20039;-70
2022/01/27 08:43:02;;;;;;;114.88;29.85;;;-1.30;99.90;;;;;;4950357;28;20027;-70
2022/01/27 08:45:28;;;;;;;98.60;30.52;;;-1.20;99.90;;;;;;4951518;29;20027;-69
2022/01/27 08:47:57;;;;;;;103.15;32.05;;;-1.10;99.90;;;;;;4967124;28;20106;-70
2022/01/27 08:50:24;;;;;;;91.32;31.38;;;-1.10;99.90;;;;;;4952196;29;20035;-71
2022/01/27 08:52:50;;;;;;;150.32;29.30;;;-0.90;99.90;;;;;;4949589;29;20031;-70
2022/01/27 08:55:16;;;;;;;56.35;28.63;;;-1.00;99.90;;;;;;4950131;28;20035;-71
2022/01/27 08:57:42;;;;;;;55.67;42.17;;;-0.90;99.90;;;;;;4949958;29;20083;-70
2022/01/27 09:00:12;;;;;;;46.17;28.13;;;-0.70;99.90;;;;;;4950593;28;20039;-71
2022/01/27 09:02:38;;;;;;;55.63;29.48;;;-0.80;99.90;;;;;;4954166;29;20031;-70
2022/01/27 09:05:05;;;;;;;33.63;25.38;;;-0.80;99.90;;;;;;4949770;29;20089;-70
2022/01/27 09:07:31;;;;;;;74.20;27.40;;;-0.30;99.90;;;;;;4949846;28;20164;-72
2022/01/27 09:09:57;;;;;;;44.75;26.40;;;-0.50;99.90;;;;;;4949676;29;20126;-70
2022/01/27 09:12:23;;;;;;;34.40;23.75;;;-0.60;99.90;;;;;;4949761;29;20036;-69
2022/01/27 09:14:48;;;;;;;53.75;25.67;;;-0.20;99.90;;;;;;4952450;29;20032;-72
2022/01/27 09:17:15;;;;;;;29.75;21.60;;;-0.40;99.90;;;;;;4951348;28;20035;-72
2022/01/27 09:19:45;;;;;;;41.15;24.33;;;-0.20;99.90;;;;;;4950779;28;20050;-72
2022/01/27 09:22:14;;;;;;;56.70;25.10;;;-0.20;99.90;;;;;;4949914;28;20134;-70
2022/01/27 09:24:58;;;;;;;39.15;23.48;;;-0.60;99.90;;;;;;4951321;28;20035;-72
2022/01/27 09:27:24;;;;;;;;;;;-0.50;99.90;;;;;;4936429;28;20028;-72
2022/01/27 09:29:51;;;;;;;44.42;27.13;;;-0.30;99.90;;;;;;4952056;28;19989;-72
2022/01/27 09:32:17;;;;;;;44.10;28.08;;;-0.30;99.90;;;;;;4952671;28;20033;-72
2022/01/27 09:34:44;;;;;;;44.30;27.77;;;-0.40;99.90;;;;;;4953443;29;20106;-71
2022/01/27 09:37:10;;;;;;;42.55;25.85;;;-0.30;99.90;;;;;;4953530;28;20583;-71
2022/01/27 09:39:37;;;;;;;50.38;26.42;;;-0.30;99.90;;;;;;4953293;29;20123;-71
2022/01/27 09:42:04;;;;;;;44.80;36.63;;;-0.40;99.90;;;;;;4954440;28;20031;-71
2022/01/27 09:44:32;;;;;;;41.20;30.23;;;-0.10;99.90;;;;;;4956504;29;20784;-72
2022/01/27 09:47:01;;;;;;;46.60;26.38;;;0.30;99.90;;;;;;4953334;29;20024;-72
2022/01/27 09:49:36;;;;;;;55.85;29.05;;;-0.20;99.90;;;;;;4953528;29;20054;-72
2022/01/27 09:52:04;;;;;;;39.92;28.70;;;-0.20;99.90;;;;;;4953531;28;20031;-72
2022/01/27 09:54:30;;;;;;;42.00;25.63;;;0.20;99.90;;;;;;4953129;29;20082;-73
2022/01/27 09:56:56;;;;;;;61.65;26.17;;;0.30;99.90;;;;;;4955253;29;20032;-72
2022/01/27 09:59:23;;;;;;;35.88;24.20;;;0.30;99.90;;;;;;4955107;29;20072;-72
2022/01/27 10:02:05;;;;;;;30.42;25.20;;;0.30;99.90;;;;;;4953168;29;20031;-72
2022/01/27 10:04:43;;;;;;;33.33;25.70;;;0.50;99.90;;;;;;4954499;28;20043;-71
2022/01/27 10:07:11;;;;;;;41.92;24.75;;;0.60;99.90;;;;;;4953086;28;20034;-72
2022/01/27 10:09:36;;;;;;;33.67;24.48;;;0.20;99.90;;;;;;4953006;29;20023;-73
2022/01/27 10:12:04;;;;;;;25.20;22.30;;;0.60;99.90;;;;;;4954086;29;20035;-72
2022/01/27 10:14:37;;;;;;;41.05;23.08;;;0.50;99.90;;;;;;4956522;29;20098;-72
2022/01/27 10:17:10;;;;;;;54.40;23.52;;;0.50;99.90;;;;;;4953303;28;20039;-71
2022/01/27 10:19:36;;;;;;;29.40;22.92;;;0.90;99.90;;;;;;4952269;29;20043;-73
2022/01/27 10:22:11;;;;;;;43.15;28.48;;;0.80;99.90;;;;;;4953293;29;20023;-71
2022/01/27 10:24:37;;;;;;;61.05;28.63;;;0.60;99.90;;;;;;4952409;29;20027;-71
2022/01/27 10:30:06;;;;;;;40.50;23.13;;;0.50;99.90;;;;;;4955130;28;20482;-73
2022/01/27 10:32:45;;;;;;;28.60;24.25;;;0.40;99.90;;;;;;4955791;29;20027;-73
2022/01/27 10:35:13;;;;;;;33.75;24.83;;;0.40;99.90;;;;;;4953557;29;20544;-73
2022/01/27 10:37:51;;;;;;;34.58;25.58;;;0.80;99.90;;;;;;4954056;29;20031;-74
2022/01/27 10:40:42;;;;;;;37.10;23.38;;;0.90;99.90;;;;;;4952039;29;20043;-72
2022/01/27 10:43:16;;;;;;;28.05;22.67;;;0.70;99.90;;;;;;4946214;28;20091;-73
2022/01/27 10:46:23;;;;;;;35.17;24.52;;;0.70;99.90;;;;;;4952325;28;20079;-74
2022/01/27 10:49:08;;;;;;;29.23;24.48;;;0.80;99.90;;;;;;4940736;29;20099;-74
2022/01/27 10:51:44;;;;;;;26.17;23.10;;;0.80;99.90;;;;;;4952274;28;20034;-71
2022/01/27 10:54:20;;;;;;;28.58;23.95;;;1.30;99.90;;;;;;4937233;29;20050;-69
2022/01/27 10:56:47;;;;;;;29.55;24.45;;;1.30;99.90;;;;;;4955220;28;20035;-71
2022/01/27 10:59:15;;;;;;;30.80;25.67;;;1.40;99.90;;;;;;4953359;29;20035;-72
2022/01/27 11:01:51;;;;;;;26.73;23.83;;;1.30;99.90;;;;;;4951819;29;20082;-71
2022/01/27 11:04:19;;;;;;;27.15;22.85;;;1.90;99.90;;;;;;4951759;28;20499;-71
2022/01/27 11:07:12;;;;;;;24.92;22.23;;;1.30;99.90;;;;;;4952061;29;20556;-71
2022/01/27 11:09:43;;;;;;;32.50;24.38;;;1.00;99.90;;;;;;4949702;29;20114;-70
2022/01/27 11:12:15;;;;;;;31.30;26.00;;;1.00;99.90;;;;;;4952421;28;20223;-71
2022/01/27 11:14:42;;;;;;;26.63;23.60;;;1.60;99.90;;;;;;4951766;29;20118;-70
2022/01/27 11:17:16;;;;;;;27.92;24.17;;;2.00;99.90;;;;;;4947776;28;20031;-72
2022/01/27 11:20:03;;;;;;;54.30;44.33;;;2.10;99.90;;;;;;4947625;28;20100;-70
2022/01/27 11:28:01;;;;;;;33.15;28.13;;;2.70;99.90;;;;;;4948992;29;20532;-74
2022/01/27 11:31:04;;;;;;;29.70;26.08;;;3.00;99.90;;;;;;4948983;29;20024;-75
2022/01/27 11:33:35;;;;;;;25.40;22.50;;;3.00;99.90;;;;;;4935999;29;20071;-74
2022/01/27 11:36:18;;;;;;;25.38;22.50;;;2.60;99.90;;;;;;4950403;29;20279;-73
2022/01/27 11:38:46;;;;;;;26.73;22.95;;;2.30;99.90;;;;;;4952149;29;20109;-73
2022/01/27 11:41:45;;;;;;;27.30;23.50;;;2.30;99.90;;;;;;4950220;29;20493;-73
2022/01/27 11:44:28;;;;;;;27.05;23.83;;;2.40;99.90;;;;;;4950483;29;20114;-74
2022/01/27 11:47:13;;;;;;;29.58;25.65;;;2.80;99.90;;;;;;4949086;29;20039;-73
2022/01/27 11:50:07;;;;;;;31.20;25.33;;;3.10;99.90;;;;;;4948697;29;20044;-73
2022/01/27 11:52:51;;;;;;;31.42;25.60;;;2.60;99.90;;;;;;4948497;29;20574;-74
2022/01/27 11:55:26;;;;;;;29.10;24.73;;;2.30;99.90;;;;;;4949740;29;20016;-75
2022/01/27 11:57:57;;;;;;;28.15;24.85;;;3.00;99.90;;;;;;4949012;29;20047;-73
2022/01/27 12:00:26;;;;;;;29.30;24.70;;;3.40;99.90;;;;;;4952563;29;20043;-74
2022/01/27 12:03:01;;;;;;;28.40;24.30;;;3.00;99.90;;;;;;4953167;28;20058;-74
2022/01/27 12:05:30;;;;;;;29.52;24.95;;;3.00;99.90;;;;;;4953438;29;20114;-75
2022/01/27 12:08:19;;;;;;;26.42;23.52;;;3.90;99.90;;;;;;4950563;29;20449;-74
2022/01/27 12:10:52;;;;;;;26.80;23.60;;;4.00;99.90;;;;;;4951052;29;20031;-74
2022/01/27 12:13:48;;;;;;;32.28;24.58;;;3.40;99.90;;;;;;4950866;29;20069;-75
2022/01/27 12:19:09;;;;;;;29.90;24.75;;;3.50;99.90;;;;;;4950531;28;20031;-73
2022/01/27 12:21:40;;;;;;;35.67;31.65;;;2.90;99.90;;;;;;4950556;28;20024;-70
2022/01/27 12:24:16;;;;;;;28.83;25.55;;;3.40;99.90;;;;;;4951702;28;20027;-71
2022/01/27 12:26:46;;;;;;;29.90;25.10;;;4.40;99.90;;;;;;4954303;29;20031;-72
2022/01/27 12:29:23;;;;;;;31.35;26.45;;;3.40;99.90;;;;;;4951587;29;20031;-72
2022/01/27 12:31:50;;;;;;;30.20;26.17;;;4.10;99.90;;;;;;4950147;28;20023;-73
2022/01/27 12:34:16;;;;;;;33.20;26.77;;;3.80;99.90;;;;;;4951015;29;20127;-74
2022/01/27 12:36:57;;;;;;;32.35;28.02;;;3.80;99.90;;;;;;4950126;29;20038;-73
2022/01/27 12:39:24;;;;;;;35.45;28.30;;;3.80;99.90;;;;;;4937911;29;20038;-73
2022/01/27 12:41:52;;;;;;;35.65;29.25;;;3.60;99.90;;;;;;4952566;28;20058;-73
2022/01/27 12:44:18;;;;;;;39.10;29.73;;;3.30;99.90;;;;;;4951548;28;20444;-72
2022/01/27 12:47:15;;;;;;;34.38;27.88;;;2.80;99.90;;;;;;4949989;29;20118;-72
2022/01/27 12:49:48;;;;;;;36.85;29.35;;;3.50;99.90;;;;;;4949269;28;20054;-72
2022/01/27 12:52:17;;;;;;;34.10;28.88;;;3.10;99.90;;;;;;4950238;29;20031;-72
2022/01/27 12:54:44;;;;;;;36.17;28.88;;;3.50;99.90;;;;;;4949917;28;20035;-72
2022/01/27 12:57:12;;;;;;;34.42;28.92;;;3.60;99.90;;;;;;4935131;29;20034;-73
2022/01/27 12:59:43;;;;;;;36.97;29.48;;;3.90;99.90;;;;;;4953929;28;20047;-72
2022/01/27 13:02:11;;;;;;;39.00;30.15;;;3.40;99.90;;;;;;4951977;29;20023;-71
2022/01/27 13:04:39;;;;;;;38.10;30.77;;;3.30;99.90;;;;;;4949954;28;20031;-72
2022/01/27 13:07:05;;;;;;;39.80;31.58;;;3.10;99.90;;;;;;4949790;29;20109;-72
2022/01/27 13:09:34;;;;;;;37.22;29.85;;;3.60;99.90;;;;;;4949923;29;20147;-72
2022/01/27 13:12:15;;;;;;;42.22;31.58;;;4.00;99.90;;;;;;4951462;28;20027;-72
2022/01/27 13:15:06;;;;;;;37.83;30.95;;;3.50;99.90;;;;;;4949812;29;20503;-71
2022/01/27 13:20:31;;;;;;;35.40;29.55;;;4.20;99.90;;;;;;4951151;28;20047;-70
2022/01/27 13:23:15;;;;;;;37.70;30.65;;;4.50;99.90;;;;;;4949589;28;20059;-72
2022/01/27 13:25:43;;;;;;;;;;;3.90;99.90;;;;;;4950246;28;20049;-72
2022/01/27 13:28:32;;;;;;;42.72;33.80;;;3.60;99.90;;;;;;4949605;28;19917;-71
2022/01/27 13:31:10;;;;;;;41.22;32.70;;;4.00;99.90;;;;;;4949891;28;20048;-71
2022/01/27 13:33:47;;;;;;;39.88;31.05;;;4.20;99.90;;;;;;4949179;28;20106;-71
2022/01/27 13:36:21;;;;;;;40.38;32.25;;;5.20;99.90;;;;;;4934722;29;20031;-71
2022/01/27 13:41:32;;;;;;;41.42;32.20;;;5.00;99.90;;;;;;4952431;29;20035;-72